sensor_id;sensor_type;location;lat;lon;timestamp;P1;durP1;ratioP1;P2;durP2;ratioP2
10013;SDS011;45684;48.358;10.746;2022-08-19T00:01:23;2.20;;;2.10;;
10013;SDS011;45684;48.358;10.746;2022-08-19T00:03:57;2.17;;;2.00;;
10013;SDS011;45684;48.358;10.746;2022-08-19T00:06:25;2.00;;;1.90;;
10013;SDS011;45684;48.358;10.746;2022-08-19T00:08:54;1.60;;;1.50;;
10013;SDS011;45684;48.358;10.746;2022-08-19T00:11:25;1.70;;;1.60;;
10013;SDS011;45684;48.358;10.746;2022-08-19T00:13:54;2.90;;;1.67;;
10013;SDS011;45684;48.358;10.746;2022-08-19T00:16:23;1.67;;;1.50;;
10013;SDS011;45684;48.358;10.746;2022-08-19T00:18:52;1.53;;;1.43;;
10013;SDS011;45684;48.358;10.746;2022-08-19T00:21:23;1.87;;;1.50;;
10013;SDS011;45684;48.358;10.746;2022-08-19T00:23:53;3.47;;;1.67;;
10013;SDS011;45684;48.358;10.746;2022-08-19T00:26:21;2.53;;;1.87;;
10013;SDS011;45684;48.358;10.746;2022-08-19T00:28:49;2.57;;;1.93;;
10013;SDS011;45684;48.358;10.746;2022-08-19T00:31:17;2.07;;;1.80;;
10013;SDS011;45684;48.358;10.746;2022-08-19T00:33:50;2.40;;;1.93;;
10013;SDS011;45684;48.358;10.746;2022-08-19T00:36:18;2.70;;;1.73;;
10013;SDS011;45684;48.358;10.746;2022-08-19T00:38:47;2.53;;;1.97;;
10013;SDS011;45684;48.358;10.746;2022-08-19T00:41:16;3.60;;;2.20;;
10013;SDS011;45684;48.358;10.746;2022-08-19T00:43:56;2.57;;;2.30;;
10013;SDS011;45684;48.358;10.746;2022-08-19T00:46:25;2.73;;;2.30;;
10013;SDS011;45684;48.358;10.746;2022-08-19T00:48:53;2.37;;;2.20;;
10013;SDS011;45684;48.358;10.746;2022-08-19T00:51:23;5.97;;;2.10;;
10013;SDS011;45684;48.358;10.746;2022-08-19T00:53:54;2.50;;;2.30;;
10013;SDS011;45684;48.358;10.746;2022-08-19T00:56:24;2.43;;;2.23;;
10013;SDS011;45684;48.358;10.746;2022-08-19T00:58:53;2.40;;;2.30;;
10013;SDS011;45684;48.358;10.746;2022-08-19T01:01:23;3.40;;;3.20;;
10013;SDS011;45684;48.358;10.746;2022-08-19T01:03:51;3.73;;;3.43;;
10013;SDS011;45684;48.358;10.746;2022-08-19T01:06:19;3.80;;;3.50;;
10013;SDS011;45684;48.358;10.746;2022-08-19T01:08:47;4.30;;;4.00;;
10013;SDS011;45684;48.358;10.746;2022-08-19T01:11:17;4.30;;;4.00;;
10013;SDS011;45684;48.358;10.746;2022-08-19T01:13:45;4.00;;;3.70;;
10013;SDS011;45684;48.358;10.746;2022-08-19T01:16:16;4.13;;;3.73;;
10013;SDS011;45684;48.358;10.746;2022-08-19T01:18:46;4.37;;;4.07;;
10013;SDS011;45684;48.358;10.746;2022-08-19T01:21:16;4.33;;;4.03;;
10013;SDS011;45684;48.358;10.746;2022-08-19T01:23:49;4.60;;;4.10;;
10013;SDS011;45684;48.358;10.746;2022-08-19T01:26:19;6.23;;;5.73;;
10013;SDS011;45684;48.358;10.746;2022-08-19T01:28:50;5.53;;;5.13;;
10013;SDS011;45684;48.358;10.746;2022-08-19T01:31:23;6.03;;;5.53;;
10013;SDS011;45684;48.358;10.746;2022-08-19T01:33:54;6.60;;;6.10;;
10013;SDS011;45684;48.358;10.746;2022-08-19T01:36:25;6.93;;;6.43;;
10013;SDS011;45684;48.358;10.746;2022-08-19T01:38:58;6.70;;;6.20;;
10013;SDS011;45684;48.358;10.746;2022-08-19T01:41:27;7.63;;;6.93;;
10013;SDS011;45684;48.358;10.746;2022-08-19T01:43:55;7.70;;;7.10;;
10013;SDS011;45684;48.358;10.746;2022-08-19T01:46:35;7.87;;;7.17;;
10013;SDS011;45684;48.358;10.746;2022-08-19T01:49:04;8.23;;;7.53;;
10013;SDS011;45684;48.358;10.746;2022-08-19T01:51:32;9.67;;;8.70;;
10013;SDS011;45684;48.358;10.746;2022-08-19T01:54:06;10.40;;;9.40;;
10013;SDS011;45684;48.358;10.746;2022-08-19T01:56:34;10.83;;;9.93;;
10013;SDS011;45684;48.358;10.746;2022-08-19T01:59:03;12.13;;;11.13;;
10013;SDS011;45684;48.358;10.746;2022-08-19T02:01:33;12.67;;;11.57;;
10013;SDS011;45684;48.358;10.746;2022-08-19T02:04:01;12.00;;;11.10;;
10013;SDS011;45684;48.358;10.746;2022-08-19T02:06:29;13.47;;;12.27;;
10013;SDS011;45684;48.358;10.746;2022-08-19T02:08:57;12.97;;;11.87;;
10013;SDS011;45684;48.358;10.746;2022-08-19T02:11:28;15.13;;;13.77;;
10013;SDS011;45684;48.358;10.746;2022-08-19T02:14:00;15.23;;;13.83;;
10013;SDS011;45684;48.358;10.746;2022-08-19T02:16:29;14.90;;;13.50;;
10013;SDS011;45684;48.358;10.746;2022-08-19T02:18:57;17.43;;;15.93;;
10013;SDS011;45684;48.358;10.746;2022-08-19T02:21:27;17.97;;;16.43;;
10013;SDS011;45684;48.358;10.746;2022-08-19T02:23:56;18.40;;;16.80;;
10013;SDS011;45684;48.358;10.746;2022-08-19T02:26:25;19.40;;;17.60;;
10013;SDS011;45684;48.358;10.746;2022-08-19T02:28:54;18.93;;;17.20;;
10013;SDS011;45684;48.358;10.746;2022-08-19T02:31:24;19.10;;;17.50;;
10013;SDS011;45684;48.358;10.746;2022-08-19T02:33:54;19.40;;;17.70;;
10013;SDS011;45684;48.358;10.746;2022-08-19T02:36:22;19.27;;;17.43;;
10013;SDS011;45684;48.358;10.746;2022-08-19T02:38:51;20.60;;;18.77;;
10013;SDS011;45684;48.358;10.746;2022-08-19T02:41:21;20.53;;;18.80;;
10013;SDS011;45684;48.358;10.746;2022-08-19T02:43:53;19.47;;;17.77;;
10013;SDS011;45684;48.358;10.746;2022-08-19T02:46:42;22.37;;;20.23;;
10013;SDS011;45684;48.358;10.746;2022-08-19T02:49:13;22.77;;;20.77;;
10013;SDS011;45684;48.358;10.746;2022-08-19T02:51:43;22.13;;;20.23;;
10013;SDS011;45684;48.358;10.746;2022-08-19T02:54:12;23.17;;;21.17;;
10013;SDS011;45684;48.358;10.746;2022-08-19T02:56:42;22.80;;;20.70;;
10013;SDS011;45684;48.358;10.746;2022-08-19T02:59:12;22.27;;;20.27;;
10013;SDS011;45684;48.358;10.746;2022-08-19T03:01:40;22.53;;;20.53;;
10013;SDS011;45684;48.358;10.746;2022-08-19T03:04:09;22.87;;;20.67;;
10013;SDS011;45684;48.358;10.746;2022-08-19T03:06:39;22.97;;;20.87;;
10013;SDS011;45684;48.358;10.746;2022-08-19T03:09:08;24.13;;;22.00;;
10013;SDS011;45684;48.358;10.746;2022-08-19T03:11:36;22.43;;;20.43;;
10013;SDS011;45684;48.358;10.746;2022-08-19T03:14:05;22.60;;;20.50;;
10013;SDS011;45684;48.358;10.746;2022-08-19T03:16:43;23.77;;;21.57;;
10013;SDS011;45684;48.358;10.746;2022-08-19T03:19:13;23.97;;;21.87;;
10013;SDS011;45684;48.358;10.746;2022-08-19T03:21:43;24.10;;;21.93;;
10013;SDS011;45684;48.358;10.746;2022-08-19T03:24:12;24.93;;;22.77;;
10013;SDS011;45684;48.358;10.746;2022-08-19T03:26:42;24.90;;;22.60;;
10013;SDS011;45684;48.358;10.746;2022-08-19T03:29:12;24.97;;;22.67;;
10013;SDS011;45684;48.358;10.746;2022-08-19T03:31:42;25.53;;;23.13;;
10013;SDS011;45684;48.358;10.746;2022-08-19T03:34:18;25.20;;;22.90;;
10013;SDS011;45684;48.358;10.746;2022-08-19T03:36:48;24.50;;;22.20;;
10013;SDS011;45684;48.358;10.746;2022-08-19T03:39:16;25.00;;;22.67;;
10013;SDS011;45684;48.358;10.746;2022-08-19T03:41:44;25.07;;;22.57;;
10013;SDS011;45684;48.358;10.746;2022-08-19T03:44:14;25.07;;;22.80;;
10013;SDS011;45684;48.358;10.746;2022-08-19T03:46:45;25.17;;;22.87;;
10013;SDS011;45684;48.358;10.746;2022-08-19T03:49:14;24.73;;;22.43;;
10013;SDS011;45684;48.358;10.746;2022-08-19T03:51:44;25.93;;;23.53;;
10013;SDS011;45684;48.358;10.746;2022-08-19T03:54:14;24.50;;;22.20;;
10013;SDS011;45684;48.358;10.746;2022-08-19T03:56:44;25.90;;;23.40;;
10013;SDS011;45684;48.358;10.746;2022-08-19T03:59:14;24.70;;;22.40;;
10013;SDS011;45684;48.358;10.746;2022-08-19T04:01:43;24.07;;;21.87;;
10013;SDS011;45684;48.358;10.746;2022-08-19T04:04:13;24.00;;;21.60;;
10013;SDS011;45684;48.358;10.746;2022-08-19T04:06:41;23.60;;;21.37;;
10013;SDS011;45684;48.358;10.746;2022-08-19T04:09:13;23.13;;;20.93;;
10013;SDS011;45684;48.358;10.746;2022-08-19T04:11:42;23.10;;;21.07;;
10013;SDS011;45684;48.358;10.746;2022-08-19T04:14:12;23.60;;;21.43;;
10013;SDS011;45684;48.358;10.746;2022-08-19T04:16:42;22.87;;;20.67;;
10013;SDS011;45684;48.358;10.746;2022-08-19T04:19:12;23.13;;;20.93;;
10013;SDS011;45684;48.358;10.746;2022-08-19T04:21:42;21.63;;;19.63;;
10013;SDS011;45684;48.358;10.746;2022-08-19T04:24:11;22.00;;;19.90;;
10013;SDS011;45684;48.358;10.746;2022-08-19T04:26:40;20.63;;;18.83;;
10013;SDS011;45684;48.358;10.746;2022-08-19T04:29:09;20.03;;;18.13;;
10013;SDS011;45684;48.358;10.746;2022-08-19T04:31:39;19.20;;;17.53;;
10013;SDS011;45684;48.358;10.746;2022-08-19T04:34:08;18.57;;;16.87;;
10013;SDS011;45684;48.358;10.746;2022-08-19T04:36:40;17.60;;;16.00;;
10013;SDS011;45684;48.358;10.746;2022-08-19T04:39:12;16.13;;;14.73;;
10013;SDS011;45684;48.358;10.746;2022-08-19T04:41:42;15.17;;;13.87;;
10013;SDS011;45684;48.358;10.746;2022-08-19T04:44:27;15.80;;;14.40;;
10013;SDS011;45684;48.358;10.746;2022-08-19T04:46:56;15.13;;;13.83;;
10013;SDS011;45684;48.358;10.746;2022-08-19T04:49:24;15.87;;;14.47;;
10013;SDS011;45684;48.358;10.746;2022-08-19T04:51:54;15.67;;;14.27;;
10013;SDS011;45684;48.358;10.746;2022-08-19T04:54:22;15.50;;;14.10;;
10013;SDS011;45684;48.358;10.746;2022-08-19T04:57:05;16.33;;;14.83;;
10013;SDS011;45684;48.358;10.746;2022-08-19T04:59:35;16.20;;;14.70;;
10013;SDS011;45684;48.358;10.746;2022-08-19T05:02:03;15.33;;;14.03;;
10013;SDS011;45684;48.358;10.746;2022-08-19T05:04:32;14.90;;;13.60;;
10013;SDS011;45684;48.358;10.746;2022-08-19T05:07:01;15.17;;;13.77;;
10013;SDS011;45684;48.358;10.746;2022-08-19T05:09:29;16.90;;;15.23;;
10013;SDS011;45684;48.358;10.746;2022-08-19T05:12:17;16.07;;;14.57;;
10013;SDS011;45684;48.358;10.746;2022-08-19T05:14:45;16.67;;;15.17;;
10013;SDS011;45684;48.358;10.746;2022-08-19T05:17:14;16.30;;;14.80;;
10013;SDS011;45684;48.358;10.746;2022-08-19T05:19:53;16.73;;;15.33;;
10013;SDS011;45684;48.358;10.746;2022-08-19T05:22:40;18.47;;;16.67;;
10013;SDS011;45684;48.358;10.746;2022-08-19T05:25:09;18.03;;;16.33;;
10013;SDS011;45684;48.358;10.746;2022-08-19T05:27:40;17.60;;;16.00;;
10013;SDS011;45684;48.358;10.746;2022-08-19T05:30:09;17.67;;;16.13;;
10013;SDS011;45684;48.358;10.746;2022-08-19T05:32:38;17.93;;;16.23;;
10013;SDS011;45684;48.358;10.746;2022-08-19T05:35:06;17.77;;;16.10;;
10013;SDS011;45684;48.358;10.746;2022-08-19T05:37:35;19.93;;;17.93;;
10013;SDS011;45684;48.358;10.746;2022-08-19T05:40:05;18.07;;;16.33;;
10013;SDS011;45684;48.358;10.746;2022-08-19T05:42:34;18.07;;;16.33;;
10013;SDS011;45684;48.358;10.746;2022-08-19T05:45:02;19.80;;;17.90;;
10013;SDS011;45684;48.358;10.746;2022-08-19T05:47:31;20.67;;;18.67;;
10013;SDS011;45684;48.358;10.746;2022-08-19T05:49:59;21.07;;;18.97;;
10013;SDS011;45684;48.358;10.746;2022-08-19T05:52:28;21.07;;;18.97;;
10013;SDS011;45684;48.358;10.746;2022-08-19T05:54:56;21.63;;;19.43;;
10013;SDS011;45684;48.358;10.746;2022-08-19T05:57:25;20.37;;;18.47;;
10013;SDS011;45684;48.358;10.746;2022-08-19T05:59:55;21.87;;;19.77;;
10013;SDS011;45684;48.358;10.746;2022-08-19T06:02:24;21.83;;;19.73;;
10013;SDS011;45684;48.358;10.746;2022-08-19T06:04:52;20.53;;;18.50;;
10013;SDS011;45684;48.358;10.746;2022-08-19T06:07:20;21.30;;;19.20;;
10013;SDS011;45684;48.358;10.746;2022-08-19T06:09:48;22.37;;;20.03;;
10013;SDS011;45684;48.358;10.746;2022-08-19T06:12:27;23.60;;;21.27;;
10013;SDS011;45684;48.358;10.746;2022-08-19T06:14:59;22.33;;;20.13;;
10013;SDS011;45684;48.358;10.746;2022-08-19T06:17:28;21.43;;;19.33;;
10013;SDS011;45684;48.358;10.746;2022-08-19T06:19:57;21.60;;;19.60;;
10013;SDS011;45684;48.358;10.746;2022-08-19T06:22:26;21.33;;;19.03;;
10013;SDS011;45684;48.358;10.746;2022-08-19T06:24:54;23.83;;;21.47;;
10013;SDS011;45684;48.358;10.746;2022-08-19T06:27:23;20.73;;;18.60;;
10013;SDS011;45684;48.358;10.746;2022-08-19T06:29:52;20.90;;;18.90;;
10013;SDS011;45684;48.358;10.746;2022-08-19T06:32:20;22.20;;;20.00;;
10013;SDS011;45684;48.358;10.746;2022-08-19T06:34:48;22.10;;;19.90;;
10013;SDS011;45684;48.358;10.746;2022-08-19T06:37:16;21.97;;;19.87;;
10013;SDS011;45684;48.358;10.746;2022-08-19T06:39:43;22.33;;;20.13;;
10013;SDS011;45684;48.358;10.746;2022-08-19T06:42:12;21.20;;;19.10;;
10013;SDS011;45684;48.358;10.746;2022-08-19T06:44:45;23.57;;;21.07;;
10013;SDS011;45684;48.358;10.746;2022-08-19T06:47:17;22.60;;;20.10;;
10013;SDS011;45684;48.358;10.746;2022-08-19T06:49:48;22.67;;;20.33;;
10013;SDS011;45684;48.358;10.746;2022-08-19T06:52:16;21.03;;;18.97;;
10013;SDS011;45684;48.358;10.746;2022-08-19T06:54:45;23.43;;;21.03;;
10013;SDS011;45684;48.358;10.746;2022-08-19T06:57:22;22.53;;;20.23;;
10013;SDS011;45684;48.358;10.746;2022-08-19T06:59:50;23.47;;;21.07;;
10013;SDS011;45684;48.358;10.746;2022-08-19T07:02:19;24.13;;;21.53;;
10013;SDS011;45684;48.358;10.746;2022-08-19T07:04:47;24.30;;;21.80;;
10013;SDS011;45684;48.358;10.746;2022-08-19T07:07:18;22.73;;;20.43;;
10013;SDS011;45684;48.358;10.746;2022-08-19T07:09:48;24.17;;;21.77;;
10013;SDS011;45684;48.358;10.746;2022-08-19T07:12:26;23.40;;;20.93;;
10013;SDS011;45684;48.358;10.746;2022-08-19T07:14:55;22.73;;;20.33;;
10013;SDS011;45684;48.358;10.746;2022-08-19T07:17:25;22.73;;;20.43;;
10013;SDS011;45684;48.358;10.746;2022-08-19T07:19:53;22.83;;;20.47;;
10013;SDS011;45684;48.358;10.746;2022-08-19T07:22:21;23.37;;;20.93;;
10013;SDS011;45684;48.358;10.746;2022-08-19T07:24:50;25.23;;;22.53;;
10013;SDS011;45684;48.358;10.746;2022-08-19T07:27:19;24.27;;;21.77;;
10013;SDS011;45684;48.358;10.746;2022-08-19T07:29:51;26.37;;;23.50;;
10013;SDS011;45684;48.358;10.746;2022-08-19T07:32:21;28.43;;;25.43;;
10013;SDS011;45684;48.358;10.746;2022-08-19T07:34:51;24.97;;;22.43;;
10013;SDS011;45684;48.358;10.746;2022-08-19T07:37:19;26.57;;;23.73;;
10013;SDS011;45684;48.358;10.746;2022-08-19T07:39:47;27.73;;;24.93;;
10013;SDS011;45684;48.358;10.746;2022-08-19T07:42:15;30.77;;;25.80;;
10013;SDS011;45684;48.358;10.746;2022-08-19T07:44:44;25.97;;;23.27;;
10013;SDS011;45684;48.358;10.746;2022-08-19T07:47:15;26.87;;;24.10;;
10013;SDS011;45684;48.358;10.746;2022-08-19T07:50:07;28.10;;;25.10;;
10013;SDS011;45684;48.358;10.746;2022-08-19T07:52:37;26.63;;;23.80;;
10013;SDS011;45684;48.358;10.746;2022-08-19T07:55:08;27.00;;;24.17;;
10013;SDS011;45684;48.358;10.746;2022-08-19T07:57:58;29.20;;;24.67;;
10013;SDS011;45684;48.358;10.746;2022-08-19T08:00:26;25.43;;;22.17;;
10013;SDS011;45684;48.358;10.746;2022-08-19T08:02:54;27.23;;;24.33;;
10013;SDS011;45684;48.358;10.746;2022-08-19T08:05:24;25.97;;;23.20;;
10013;SDS011;45684;48.358;10.746;2022-08-19T08:08:09;26.87;;;23.97;;
10013;SDS011;45684;48.358;10.746;2022-08-19T08:10:55;26.90;;;23.70;;
10013;SDS011;45684;48.358;10.746;2022-08-19T08:13:23;26.93;;;23.73;;
10013;SDS011;45684;48.358;10.746;2022-08-19T08:15:50;25.67;;;22.97;;
10013;SDS011;45684;48.358;10.746;2022-08-19T08:18:18;24.83;;;22.23;;
10013;SDS011;45684;48.358;10.746;2022-08-19T08:20:48;26.30;;;23.60;;
10013;SDS011;45684;48.358;10.746;2022-08-19T08:23:16;25.70;;;23.07;;
10013;SDS011;45684;48.358;10.746;2022-08-19T08:25:51;24.63;;;22.13;;
10013;SDS011;45684;48.358;10.746;2022-08-19T08:28:21;26.40;;;23.50;;
10013;SDS011;45684;48.358;10.746;2022-08-19T08:30:50;26.93;;;22.80;;
10013;SDS011;45684;48.358;10.746;2022-08-19T08:33:19;23.70;;;21.20;;
10013;SDS011;45684;48.358;10.746;2022-08-19T08:35:57;26.10;;;23.17;;
10013;SDS011;45684;48.358;10.746;2022-08-19T08:38:24;24.77;;;22.17;;
10013;SDS011;45684;48.358;10.746;2022-08-19T08:40:55;25.83;;;23.23;;
10013;SDS011;45684;48.358;10.746;2022-08-19T08:43:30;24.23;;;21.83;;
10013;SDS011;45684;48.358;10.746;2022-08-19T08:46:03;22.83;;;20.60;;
10013;SDS011;45684;48.358;10.746;2022-08-19T08:48:38;23.97;;;21.60;;
10013;SDS011;45684;48.358;10.746;2022-08-19T08:51:12;22.37;;;19.97;;
10013;SDS011;45684;48.358;10.746;2022-08-19T08:53:46;23.57;;;21.07;;
10013;SDS011;45684;48.358;10.746;2022-08-19T08:56:21;21.33;;;19.13;;
10013;SDS011;45684;48.358;10.746;2022-08-19T08:58:51;23.73;;;21.23;;
10013;SDS011;45684;48.358;10.746;2022-08-19T09:01:25;25.30;;;22.70;;
10013;SDS011;45684;48.358;10.746;2022-08-19T09:03:55;25.00;;;22.33;;
10013;SDS011;45684;48.358;10.746;2022-08-19T09:06:32;25.33;;;22.63;;
10013;SDS011;45684;48.358;10.746;2022-08-19T09:09:10;24.63;;;22.07;;
10013;SDS011;45684;48.358;10.746;2022-08-19T09:14:39;25.93;;;23.20;;
10013;SDS011;45684;48.358;10.746;2022-08-19T09:17:17;26.23;;;23.53;;
10013;SDS011;45684;48.358;10.746;2022-08-19T09:19:52;27.43;;;23.80;;
10013;SDS011;45684;48.358;10.746;2022-08-19T09:22:24;26.57;;;23.80;;
10013;SDS011;45684;48.358;10.746;2022-08-19T09:24:53;26.30;;;23.50;;
10013;SDS011;45684;48.358;10.746;2022-08-19T09:27:22;23.60;;;21.20;;
10013;SDS011;45684;48.358;10.746;2022-08-19T09:30:08;24.67;;;22.07;;
10013;SDS011;45684;48.358;10.746;2022-08-19T09:32:41;26.37;;;23.67;;
10013;SDS011;45684;48.358;10.746;2022-08-19T09:35:10;25.13;;;22.43;;
10013;SDS011;45684;48.358;10.746;2022-08-19T09:37:40;28.17;;;25.27;;
10013;SDS011;45684;48.358;10.746;2022-08-19T09:40:09;29.90;;;26.43;;
10013;SDS011;45684;48.358;10.746;2022-08-19T09:42:38;30.50;;;26.47;;
10013;SDS011;45684;48.358;10.746;2022-08-19T09:45:17;27.60;;;24.33;;
10013;SDS011;45684;48.358;10.746;2022-08-19T09:47:48;30.23;;;26.90;;
10013;SDS011;45684;48.358;10.746;2022-08-19T09:50:19;29.33;;;26.17;;
10013;SDS011;45684;48.358;10.746;2022-08-19T09:52:49;32.73;;;28.07;;
10013;SDS011;45684;48.358;10.746;2022-08-19T09:55:21;32.90;;;28.83;;
10013;SDS011;45684;48.358;10.746;2022-08-19T09:57:49;35.70;;;29.30;;
10013;SDS011;45684;48.358;10.746;2022-08-19T10:00:17;33.57;;;29.00;;
10013;SDS011;45684;48.358;10.746;2022-08-19T10:02:46;34.33;;;29.97;;
10013;SDS011;45684;48.358;10.746;2022-08-19T10:05:14;34.70;;;29.70;;
10013;SDS011;45684;48.358;10.746;2022-08-19T10:08:01;34.73;;;29.77;;
10013;SDS011;45684;48.358;10.746;2022-08-19T10:10:29;34.27;;;29.60;;
10013;SDS011;45684;48.358;10.746;2022-08-19T10:13:02;33.70;;;28.83;;
10013;SDS011;45684;48.358;10.746;2022-08-19T10:15:30;34.93;;;29.07;;
10013;SDS011;45684;48.358;10.746;2022-08-19T10:17:58;32.33;;;27.63;;
10013;SDS011;45684;48.358;10.746;2022-08-19T10:20:26;32.67;;;29.03;;
10013;SDS011;45684;48.358;10.746;2022-08-19T10:22:55;32.33;;;28.80;;
10013;SDS011;45684;48.358;10.746;2022-08-19T10:25:27;34.00;;;29.10;;
10013;SDS011;45684;48.358;10.746;2022-08-19T10:27:54;34.40;;;28.67;;
10013;SDS011;45684;48.358;10.746;2022-08-19T10:30:22;29.80;;;26.63;;
10013;SDS011;45684;48.358;10.746;2022-08-19T10:32:50;29.37;;;26.33;;
10013;SDS011;45684;48.358;10.746;2022-08-19T10:35:18;29.33;;;26.33;;
10013;SDS011;45684;48.358;10.746;2022-08-19T10:37:47;31.77;;;25.90;;
10013;SDS011;45684;48.358;10.746;2022-08-19T10:40:22;29.10;;;25.23;;
10013;SDS011;45684;48.358;10.746;2022-08-19T10:42:51;31.60;;;27.23;;
10013;SDS011;45684;48.358;10.746;2022-08-19T10:45:19;28.00;;;24.93;;
10013;SDS011;45684;48.358;10.746;2022-08-19T10:47:48;30.40;;;26.60;;
10013;SDS011;45684;48.358;10.746;2022-08-19T10:50:16;29.27;;;25.37;;
10013;SDS011;45684;48.358;10.746;2022-08-19T10:53:03;29.40;;;26.30;;
10013;SDS011;45684;48.358;10.746;2022-08-19T10:55:33;28.80;;;25.80;;
10013;SDS011;45684;48.358;10.746;2022-08-19T10:58:21;27.50;;;24.20;;
10013;SDS011;45684;48.358;10.746;2022-08-19T11:00:51;28.60;;;25.53;;
10013;SDS011;45684;48.358;10.746;2022-08-19T11:03:20;27.63;;;24.73;;
10013;SDS011;45684;48.358;10.746;2022-08-19T11:05:56;29.87;;;25.37;;
10013;SDS011;45684;48.358;10.746;2022-08-19T11:08:25;28.53;;;24.47;;
10013;SDS011;45684;48.358;10.746;2022-08-19T11:10:54;25.17;;;22.07;;
10013;SDS011;45684;48.358;10.746;2022-08-19T11:13:26;27.70;;;23.23;;
10013;SDS011;45684;48.358;10.746;2022-08-19T11:15:56;29.10;;;23.03;;
10013;SDS011;45684;48.358;10.746;2022-08-19T11:18:28;24.37;;;21.37;;
10013;SDS011;45684;48.358;10.746;2022-08-19T11:21:04;27.27;;;21.93;;
10013;SDS011;45684;48.358;10.746;2022-08-19T11:23:33;20.97;;;18.67;;
10013;SDS011;45684;48.358;10.746;2022-08-19T11:26:01;20.47;;;16.87;;
10013;SDS011;45684;48.358;10.746;2022-08-19T11:28:30;19.67;;;16.20;;
10013;SDS011;45684;48.358;10.746;2022-08-19T11:30:58;17.83;;;15.10;;
10013;SDS011;45684;48.358;10.746;2022-08-19T11:33:26;16.67;;;14.63;;
10013;SDS011;45684;48.358;10.746;2022-08-19T11:35:53;17.10;;;15.50;;
10013;SDS011;45684;48.358;10.746;2022-08-19T11:38:21;13.33;;;12.03;;
10013;SDS011;45684;48.358;10.746;2022-08-19T11:40:54;11.27;;;10.07;;
10013;SDS011;45684;48.358;10.746;2022-08-19T11:43:23;7.67;;;6.97;;
10013;SDS011;45684;48.358;10.746;2022-08-19T11:45:54;7.57;;;6.87;;
10013;SDS011;45684;48.358;10.746;2022-08-19T11:48:23;7.50;;;6.80;;
10013;SDS011;45684;48.358;10.746;2022-08-19T11:50:52;5.70;;;5.20;;
10013;SDS011;45684;48.358;10.746;2022-08-19T11:53:22;6.43;;;5.83;;
10013;SDS011;45684;48.358;10.746;2022-08-19T11:55:53;6.10;;;5.57;;
10013;SDS011;45684;48.358;10.746;2022-08-19T11:58:22;7.47;;;6.77;;
10013;SDS011;45684;48.358;10.746;2022-08-19T12:00:51;7.77;;;7.17;;
10013;SDS011;45684;48.358;10.746;2022-08-19T12:03:21;7.87;;;7.17;;
10013;SDS011;45684;48.358;10.746;2022-08-19T12:05:49;7.83;;;7.13;;
10013;SDS011;45684;48.358;10.746;2022-08-19T12:08:18;8.53;;;7.47;;
10013;SDS011;45684;48.358;10.746;2022-08-19T12:10:46;7.77;;;7.07;;
10013;SDS011;45684;48.358;10.746;2022-08-19T12:13:14;8.63;;;7.83;;
10013;SDS011;45684;48.358;10.746;2022-08-19T12:15:45;12.20;;;10.90;;
10013;SDS011;45684;48.358;10.746;2022-08-19T12:18:14;15.13;;;13.53;;
10013;SDS011;45684;48.358;10.746;2022-08-19T12:20:43;14.83;;;13.37;;
10013;SDS011;45684;48.358;10.746;2022-08-19T12:23:12;9.77;;;8.27;;
10013;SDS011;45684;48.358;10.746;2022-08-19T12:25:44;8.57;;;7.77;;
10013;SDS011;45684;48.358;10.746;2022-08-19T12:28:16;9.30;;;8.50;;
10013;SDS011;45684;48.358;10.746;2022-08-19T12:30:44;9.00;;;8.20;;
10013;SDS011;45684;48.358;10.746;2022-08-19T12:33:12;9.13;;;8.23;;
10013;SDS011;45684;48.358;10.746;2022-08-19T12:35:41;9.30;;;8.40;;
10013;SDS011;45684;48.358;10.746;2022-08-19T12:38:14;9.17;;;8.10;;
10013;SDS011;45684;48.358;10.746;2022-08-19T12:40:44;7.90;;;7.20;;
10013;SDS011;45684;48.358;10.746;2022-08-19T12:43:13;8.37;;;7.57;;
10013;SDS011;45684;48.358;10.746;2022-08-19T12:45:41;8.70;;;7.87;;
10013;SDS011;45684;48.358;10.746;2022-08-19T12:48:09;8.90;;;8.00;;
10013;SDS011;45684;48.358;10.746;2022-08-19T12:50:57;9.53;;;8.63;;
10013;SDS011;45684;48.358;10.746;2022-08-19T12:53:26;8.13;;;7.43;;
10013;SDS011;45684;48.358;10.746;2022-08-19T12:55:55;9.23;;;8.43;;
10013;SDS011;45684;48.358;10.746;2022-08-19T12:58:23;11.33;;;10.33;;
10013;SDS011;45684;48.358;10.746;2022-08-19T13:00:52;12.33;;;11.33;;
10013;SDS011;45684;48.358;10.746;2022-08-19T13:03:21;11.73;;;10.73;;
10013;SDS011;45684;48.358;10.746;2022-08-19T13:05:53;11.97;;;10.80;;
10013;SDS011;45684;48.358;10.746;2022-08-19T13:08:21;12.37;;;11.27;;
10013;SDS011;45684;48.358;10.746;2022-08-19T13:10:51;13.03;;;11.93;;
10013;SDS011;45684;48.358;10.746;2022-08-19T13:13:19;13.00;;;11.80;;
10013;SDS011;45684;48.358;10.746;2022-08-19T13:15:47;14.73;;;13.43;;
10013;SDS011;45684;48.358;10.746;2022-08-19T13:18:15;16.27;;;14.77;;
10013;SDS011;45684;48.358;10.746;2022-08-19T13:20:43;16.03;;;14.60;;
10013;SDS011;45684;48.358;10.746;2022-08-19T13:23:18;17.23;;;15.53;;
10013;SDS011;45684;48.358;10.746;2022-08-19T13:25:56;17.10;;;15.40;;
10013;SDS011;45684;48.358;10.746;2022-08-19T13:28:25;16.97;;;15.27;;
10013;SDS011;45684;48.358;10.746;2022-08-19T13:31:14;17.97;;;16.37;;
10013;SDS011;45684;48.358;10.746;2022-08-19T13:34:00;17.53;;;15.93;;
10013;SDS011;45684;48.358;10.746;2022-08-19T13:36:28;18.27;;;16.57;;
10013;SDS011;45684;48.358;10.746;2022-08-19T13:38:56;18.53;;;16.87;;
10013;SDS011;45684;48.358;10.746;2022-08-19T13:41:25;17.90;;;16.27;;
10013;SDS011;45684;48.358;10.746;2022-08-19T13:43:54;16.63;;;15.17;;
10013;SDS011;45684;48.358;10.746;2022-08-19T13:46:22;16.03;;;14.67;;
10013;SDS011;45684;48.358;10.746;2022-08-19T13:48:50;16.23;;;14.73;;
10013;SDS011;45684;48.358;10.746;2022-08-19T13:51:17;16.53;;;15.13;;
10013;SDS011;45684;48.358;10.746;2022-08-19T13:53:45;16.67;;;15.17;;
10013;SDS011;45684;48.358;10.746;2022-08-19T13:56:14;16.03;;;14.70;;
10013;SDS011;45684;48.358;10.746;2022-08-19T13:58:52;15.67;;;14.33;;
10013;SDS011;45684;48.358;10.746;2022-08-19T14:01:20;15.37;;;14.07;;
10013;SDS011;45684;48.358;10.746;2022-08-19T14:03:49;15.57;;;14.17;;
10013;SDS011;45684;48.358;10.746;2022-08-19T14:06:18;15.13;;;13.80;;
10013;SDS011;45684;48.358;10.746;2022-08-19T14:08:47;15.10;;;13.80;;
10013;SDS011;45684;48.358;10.746;2022-08-19T14:11:15;16.33;;;14.83;;
10013;SDS011;45684;48.358;10.746;2022-08-19T14:13:43;16.00;;;14.50;;
10013;SDS011;45684;48.358;10.746;2022-08-19T14:16:13;16.20;;;14.70;;
10013;SDS011;45684;48.358;10.746;2022-08-19T14:18:41;16.80;;;15.20;;
10013;SDS011;45684;48.358;10.746;2022-08-19T14:21:13;16.43;;;15.03;;
10013;SDS011;45684;48.358;10.746;2022-08-19T14:23:43;16.93;;;15.33;;
10013;SDS011;45684;48.358;10.746;2022-08-19T14:26:12;16.57;;;15.07;;
10013;SDS011;45684;48.358;10.746;2022-08-19T14:28:42;17.77;;;16.27;;
10013;SDS011;45684;48.358;10.746;2022-08-19T14:31:10;16.50;;;15.00;;
10013;SDS011;45684;48.358;10.746;2022-08-19T14:33:42;15.77;;;14.37;;
10013;SDS011;45684;48.358;10.746;2022-08-19T14:36:10;17.37;;;15.77;;